sensor_id;sensor_type;location;lat;lon;timestamp;P1;durP1;ratioP1;P2;durP2;ratioP2
29902;SDS011;30288;50.514;9.678;2023-12-28T00:01:03;6.90;;;2.15;;
29902;SDS011;30288;50.514;9.678;2023-12-28T00:03:10;8.57;;;2.63;;
29902;SDS011;30288;50.514;9.678;2023-12-28T00:05:16;7.20;;;2.25;;
29902;SDS011;30288;50.514;9.678;2023-12-28T00:07:21;6.63;;;2.53;;
29902;SDS011;30288;50.514;9.678;2023-12-28T00:09:26;5.70;;;2.20;;
29902;SDS011;30288;50.514;9.678;2023-12-28T00:11:34;6.80;;;2.30;;
29902;SDS011;30288;50.514;9.678;2023-12-28T00:13:42;6.55;;;2.22;;
29902;SDS011;30288;50.514;9.678;2023-12-28T00:15:47;5.20;;;2.20;;
29902;SDS011;30288;50.514;9.678;2023-12-28T00:17:53;6.60;;;2.53;;
29902;SDS011;30288;50.514;9.678;2023-12-28T00:22:01;4.10;;;1.90;;
29902;SDS011;30288;50.514;9.678;2023-12-28T00:24:07;4.97;;;1.95;;
29902;SDS011;30288;50.514;9.678;2023-12-28T00:26:12;5.28;;;2.13;;
29902;SDS011;30288;50.514;9.678;2023-12-28T00:28:35;9.15;;;2.70;;
29902;SDS011;30288;50.514;9.678;2023-12-28T00:30:40;6.93;;;2.58;;
29902;SDS011;30288;50.514;9.678;2023-12-28T00:32:46;5.25;;;2.35;;
29902;SDS011;30288;50.514;9.678;2023-12-28T00:34:52;6.15;;;2.42;;
29902;SDS011;30288;50.514;9.678;2023-12-28T00:36:57;6.47;;;2.70;;
29902;SDS011;30288;50.514;9.678;2023-12-28T00:39:03;6.63;;;2.47;;
29902;SDS011;30288;50.514;9.678;2023-12-28T00:41:09;5.65;;;2.67;;
29902;SDS011;30288;50.514;9.678;2023-12-28T00:45:20;5.10;;;2.33;;
29902;SDS011;30288;50.514;9.678;2023-12-28T00:47:26;8.07;;;3.00;;
29902;SDS011;30288;50.514;9.678;2023-12-28T00:51:34;5.40;;;2.58;;
29902;SDS011;30288;50.514;9.678;2023-12-28T00:53:39;7.00;;;3.88;;
29902;SDS011;30288;50.514;9.678;2023-12-28T00:55:44;9.27;;;2.58;;
29902;SDS011;30288;50.514;9.678;2023-12-28T00:57:49;6.65;;;2.92;;
29902;SDS011;30288;50.514;9.678;2023-12-28T00:59:57;6.85;;;2.88;;
29902;SDS011;30288;50.514;9.678;2023-12-28T01:02:05;7.20;;;3.05;;
29902;SDS011;30288;50.514;9.678;2023-12-28T01:04:10;7.25;;;3.08;;
29902;SDS011;30288;50.514;9.678;2023-12-28T01:06:16;7.97;;;2.92;;
29902;SDS011;30288;50.514;9.678;2023-12-28T01:08:21;5.47;;;2.40;;
29902;SDS011;30288;50.514;9.678;2023-12-28T01:10:26;5.80;;;2.70;;
29902;SDS011;30288;50.514;9.678;2023-12-28T01:12:35;5.68;;;2.75;;
29902;SDS011;30288;50.514;9.678;2023-12-28T01:14:37;7.82;;;2.90;;
29902;SDS011;30288;50.514;9.678;2023-12-28T01:16:43;7.03;;;3.00;;
29902;SDS011;30288;50.514;9.678;2023-12-28T01:18:52;6.50;;;2.75;;
29902;SDS011;30288;50.514;9.678;2023-12-28T01:20:57;8.90;;;2.65;;
29902;SDS011;30288;50.514;9.678;2023-12-28T01:23:05;6.72;;;2.85;;
29902;SDS011;30288;50.514;9.678;2023-12-28T01:25:10;5.35;;;2.63;;
29902;SDS011;30288;50.514;9.678;2023-12-28T01:27:13;6.55;;;2.55;;
29902;SDS011;30288;50.514;9.678;2023-12-28T01:29:18;6.15;;;2.60;;
29902;SDS011;30288;50.514;9.678;2023-12-28T01:31:24;7.32;;;3.00;;
29902;SDS011;30288;50.514;9.678;2023-12-28T01:33:29;8.50;;;3.22;;
29902;SDS011;30288;50.514;9.678;2023-12-28T01:35:38;6.20;;;2.53;;
29902;SDS011;30288;50.514;9.678;2023-12-28T01:37:43;6.28;;;2.35;;
29902;SDS011;30288;50.514;9.678;2023-12-28T01:39:48;6.38;;;2.75;;
29902;SDS011;30288;50.514;9.678;2023-12-28T01:41:51;8.35;;;2.58;;
29902;SDS011;30288;50.514;9.678;2023-12-28T01:43:56;6.90;;;2.60;;
29902;SDS011;30288;50.514;9.678;2023-12-28T01:46:02;7.20;;;3.13;;
29902;SDS011;30288;50.514;9.678;2023-12-28T01:48:08;8.77;;;2.67;;
29902;SDS011;30288;50.514;9.678;2023-12-28T01:50:14;7.43;;;2.65;;
29902;SDS011;30288;50.514;9.678;2023-12-28T01:52:19;7.22;;;2.50;;
29902;SDS011;30288;50.514;9.678;2023-12-28T01:54:25;9.93;;;2.80;;
29902;SDS011;30288;50.514;9.678;2023-12-28T01:56:30;7.70;;;2.22;;
29902;SDS011;30288;50.514;9.678;2023-12-28T01:58:36;6.90;;;2.13;;
29902;SDS011;30288;50.514;9.678;2023-12-28T02:00:44;6.22;;;2.33;;
29902;SDS011;30288;50.514;9.678;2023-12-28T02:02:50;5.50;;;2.58;;
29902;SDS011;30288;50.514;9.678;2023-12-28T02:04:56;6.63;;;2.50;;
29902;SDS011;30288;50.514;9.678;2023-12-28T02:07:02;10.30;;;3.30;;
29902;SDS011;30288;50.514;9.678;2023-12-28T02:09:09;7.25;;;2.63;;
29902;SDS011;30288;50.514;9.678;2023-12-28T02:11:15;5.88;;;2.50;;
29902;SDS011;30288;50.514;9.678;2023-12-28T02:13:21;5.22;;;2.20;;
29902;SDS011;30288;50.514;9.678;2023-12-28T02:15:24;6.68;;;2.67;;
29902;SDS011;30288;50.514;9.678;2023-12-28T02:17:30;9.00;;;2.90;;
29902;SDS011;30288;50.514;9.678;2023-12-28T02:19:45;6.63;;;2.80;;
29902;SDS011;30288;50.514;9.678;2023-12-28T02:21:55;6.63;;;2.90;;
29902;SDS011;30288;50.514;9.678;2023-12-28T02:23:59;7.47;;;2.65;;
29902;SDS011;30288;50.514;9.678;2023-12-28T02:26:08;6.38;;;2.83;;
29902;SDS011;30288;50.514;9.678;2023-12-28T02:28:13;6.95;;;3.00;;
29902;SDS011;30288;50.514;9.678;2023-12-28T02:30:20;7.10;;;2.65;;
29902;SDS011;30288;50.514;9.678;2023-12-28T02:34:58;8.07;;;3.13;;
29902;SDS011;30288;50.514;9.678;2023-12-28T02:37:11;6.45;;;2.60;;
29902;SDS011;30288;50.514;9.678;2023-12-28T02:39:20;8.52;;;3.00;;
29902;SDS011;30288;50.514;9.678;2023-12-28T02:41:28;7.30;;;2.90;;
29902;SDS011;30288;50.514;9.678;2023-12-28T02:43:36;6.40;;;2.30;;
29902;SDS011;30288;50.514;9.678;2023-12-28T02:45:41;7.28;;;3.22;;
29902;SDS011;30288;50.514;9.678;2023-12-28T02:47:47;5.22;;;2.78;;
29902;SDS011;30288;50.514;9.678;2023-12-28T02:49:52;6.60;;;2.90;;
29902;SDS011;30288;50.514;9.678;2023-12-28T02:51:57;6.28;;;3.10;;
29902;SDS011;30288;50.514;9.678;2023-12-28T02:54:02;7.57;;;2.97;;
29902;SDS011;30288;50.514;9.678;2023-12-28T02:56:08;5.53;;;2.83;;
29902;SDS011;30288;50.514;9.678;2023-12-28T02:58:18;8.57;;;3.28;;
29902;SDS011;30288;50.514;9.678;2023-12-28T03:00:24;9.50;;;2.78;;
29902;SDS011;30288;50.514;9.678;2023-12-28T03:02:30;8.57;;;2.83;;
29902;SDS011;30288;50.514;9.678;2023-12-28T03:04:33;6.07;;;3.13;;
29902;SDS011;30288;50.514;9.678;2023-12-28T03:06:38;6.32;;;3.10;;
29902;SDS011;30288;50.514;9.678;2023-12-28T03:08:44;7.68;;;3.38;;
29902;SDS011;30288;50.514;9.678;2023-12-28T03:10:49;7.80;;;2.83;;
29902;SDS011;30288;50.514;9.678;2023-12-28T03:12:56;8.60;;;3.08;;
29902;SDS011;30288;50.514;9.678;2023-12-28T03:15:06;7.60;;;3.13;;
29902;SDS011;30288;50.514;9.678;2023-12-28T03:17:12;7.80;;;3.42;;
29902;SDS011;30288;50.514;9.678;2023-12-28T03:21:20;8.88;;;3.70;;
29902;SDS011;30288;50.514;9.678;2023-12-28T03:23:25;7.55;;;3.30;;
29902;SDS011;30288;50.514;9.678;2023-12-28T03:25:32;8.45;;;3.15;;
29902;SDS011;30288;50.514;9.678;2023-12-28T03:27:34;9.63;;;3.70;;
29902;SDS011;30288;50.514;9.678;2023-12-28T03:29:40;8.57;;;3.65;;
29902;SDS011;30288;50.514;9.678;2023-12-28T03:31:49;7.43;;;3.70;;
29902;SDS011;30288;50.514;9.678;2023-12-28T03:33:51;8.20;;;3.10;;
29902;SDS011;30288;50.514;9.678;2023-12-28T03:35:57;6.65;;;3.30;;
29902;SDS011;30288;50.514;9.678;2023-12-28T03:38:03;6.63;;;3.40;;
29902;SDS011;30288;50.514;9.678;2023-12-28T03:40:09;6.93;;;3.30;;
29902;SDS011;30288;50.514;9.678;2023-12-28T03:42:13;8.52;;;3.42;;
29902;SDS011;30288;50.514;9.678;2023-12-28T03:44:19;7.05;;;3.58;;
29902;SDS011;30288;50.514;9.678;2023-12-28T03:46:25;9.85;;;3.97;;
29902;SDS011;30288;50.514;9.678;2023-12-28T03:48:34;7.72;;;3.83;;
29902;SDS011;30288;50.514;9.678;2023-12-28T03:50:40;6.45;;;3.35;;
29902;SDS011;30288;50.514;9.678;2023-12-28T03:52:46;7.40;;;3.83;;
29902;SDS011;30288;50.514;9.678;2023-12-28T03:54:52;8.00;;;3.80;;
29902;SDS011;30288;50.514;9.678;2023-12-28T03:56:58;10.75;;;3.80;;
29902;SDS011;30288;50.514;9.678;2023-12-28T03:59:03;7.65;;;3.90;;
29902;SDS011;30288;50.514;9.678;2023-12-28T04:01:09;8.80;;;3.92;;
29902;SDS011;30288;50.514;9.678;2023-12-28T04:03:12;10.25;;;4.30;;
29902;SDS011;30288;50.514;9.678;2023-12-28T04:05:20;10.77;;;4.70;;
29902;SDS011;30288;50.514;9.678;2023-12-28T04:07:26;9.50;;;4.28;;
29902;SDS011;30288;50.514;9.678;2023-12-28T04:09:32;9.75;;;4.38;;
29902;SDS011;30288;50.514;9.678;2023-12-28T04:11:37;7.28;;;4.35;;
29902;SDS011;30288;50.514;9.678;2023-12-28T04:13:44;13.20;;;4.60;;
29902;SDS011;30288;50.514;9.678;2023-12-28T04:15:49;8.75;;;4.60;;
29902;SDS011;30288;50.514;9.678;2023-12-28T04:17:54;9.45;;;4.80;;
29902;SDS011;30288;50.514;9.678;2023-12-28T04:20:03;11.23;;;5.15;;
29902;SDS011;30288;50.514;9.678;2023-12-28T04:22:14;10.90;;;5.35;;
29902;SDS011;30288;50.514;9.678;2023-12-28T04:24:19;8.23;;;4.45;;
29902;SDS011;30288;50.514;9.678;2023-12-28T04:26:25;10.13;;;5.30;;
29902;SDS011;30288;50.514;9.678;2023-12-28T04:28:31;12.20;;;5.22;;
29902;SDS011;30288;50.514;9.678;2023-12-28T04:30:36;10.07;;;5.05;;
29902;SDS011;30288;50.514;9.678;2023-12-28T04:32:42;10.82;;;5.13;;
29902;SDS011;30288;50.514;9.678;2023-12-28T04:34:47;9.02;;;4.43;;
29902;SDS011;30288;50.514;9.678;2023-12-28T04:36:53;10.38;;;5.40;;
29902;SDS011;30288;50.514;9.678;2023-12-28T04:39:01;9.43;;;4.78;;
29902;SDS011;30288;50.514;9.678;2023-12-28T04:41:09;9.98;;;5.60;;
29902;SDS011;30288;50.514;9.678;2023-12-28T04:43:15;8.65;;;4.55;;
29902;SDS011;30288;50.514;9.678;2023-12-28T04:45:20;10.13;;;5.00;;
29902;SDS011;30288;50.514;9.678;2023-12-28T04:47:24;9.25;;;4.75;;
29902;SDS011;30288;50.514;9.678;2023-12-28T04:49:29;10.73;;;5.63;;
29902;SDS011;30288;50.514;9.678;2023-12-28T04:51:35;8.75;;;4.97;;
29902;SDS011;30288;50.514;9.678;2023-12-28T04:53:40;10.65;;;5.22;;
29902;SDS011;30288;50.514;9.678;2023-12-28T04:55:48;11.13;;;4.93;;
29902;SDS011;30288;50.514;9.678;2023-12-28T04:57:51;12.27;;;5.25;;
29902;SDS011;30288;50.514;9.678;2023-12-28T04:59:56;8.13;;;4.40;;
29902;SDS011;30288;50.514;9.678;2023-12-28T05:02:02;8.82;;;4.57;;
29902;SDS011;30288;50.514;9.678;2023-12-28T05:04:07;8.68;;;4.35;;
29902;SDS011;30288;50.514;9.678;2023-12-28T05:06:18;7.85;;;4.43;;
29902;SDS011;30288;50.514;9.678;2023-12-28T05:08:23;10.43;;;4.53;;
29902;SDS011;30288;50.514;9.678;2023-12-28T05:10:26;8.93;;;3.90;;
29902;SDS011;30288;50.514;9.678;2023-12-28T05:12:34;10.15;;;4.55;;
29902;SDS011;30288;50.514;9.678;2023-12-28T05:14:45;10.25;;;4.40;;
29902;SDS011;30288;50.514;9.678;2023-12-28T05:16:48;9.30;;;4.38;;
29902;SDS011;30288;50.514;9.678;2023-12-28T05:18:54;8.82;;;4.35;;
29902;SDS011;30288;50.514;9.678;2023-12-28T05:20:59;9.60;;;4.18;;
29902;SDS011;30288;50.514;9.678;2023-12-28T05:23:03;12.10;;;4.15;;
29902;SDS011;30288;50.514;9.678;2023-12-28T05:25:08;11.40;;;4.40;;
29902;SDS011;30288;50.514;9.678;2023-12-28T05:27:13;9.68;;;4.28;;
29902;SDS011;30288;50.514;9.678;2023-12-28T05:29:22;10.40;;;4.50;;
29902;SDS011;30288;50.514;9.678;2023-12-28T05:31:24;9.45;;;4.28;;
29902;SDS011;30288;50.514;9.678;2023-12-28T05:33:30;8.30;;;4.10;;
29902;SDS011;30288;50.514;9.678;2023-12-28T05:35:35;7.82;;;4.25;;
29902;SDS011;30288;50.514;9.678;2023-12-28T05:37:41;8.85;;;4.25;;
29902;SDS011;30288;50.514;9.678;2023-12-28T05:39:46;9.18;;;4.70;;
29902;SDS011;30288;50.514;9.678;2023-12-28T05:41:51;9.55;;;4.45;;
29902;SDS011;30288;50.514;9.678;2023-12-28T05:43:57;8.90;;;4.70;;
29902;SDS011;30288;50.514;9.678;2023-12-28T05:46:05;10.52;;;4.53;;
29902;SDS011;30288;50.514;9.678;2023-12-28T05:48:10;9.27;;;4.65;;
29902;SDS011;30288;50.514;9.678;2023-12-28T05:50:16;7.43;;;4.00;;
29902;SDS011;30288;50.514;9.678;2023-12-28T05:52:21;13.70;;;4.60;;
29902;SDS011;30288;50.514;9.678;2023-12-28T05:54:27;9.48;;;4.32;;
29902;SDS011;30288;50.514;9.678;2023-12-28T05:56:30;11.85;;;4.40;;
29902;SDS011;30288;50.514;9.678;2023-12-28T05:58:35;11.38;;;4.60;;
29902;SDS011;30288;50.514;9.678;2023-12-28T06:00:41;10.35;;;4.13;;
29902;SDS011;30288;50.514;9.678;2023-12-28T06:02:51;8.77;;;3.60;;
29902;SDS011;30288;50.514;9.678;2023-12-28T06:04:56;9.82;;;4.60;;
29902;SDS011;30288;50.514;9.678;2023-12-28T06:07:03;8.77;;;4.32;;
29902;SDS011;30288;50.514;9.678;2023-12-28T06:09:08;9.50;;;4.50;;
29902;SDS011;30288;50.514;9.678;2023-12-28T06:11:14;11.30;;;4.80;;
29902;SDS011;30288;50.514;9.678;2023-12-28T06:13:19;9.50;;;4.65;;
29902;SDS011;30288;50.514;9.678;2023-12-28T06:15:25;12.35;;;4.53;;
29902;SDS011;30288;50.514;9.678;2023-12-28T06:17:30;10.70;;;4.65;;
29902;SDS011;30288;50.514;9.678;2023-12-28T06:19:38;10.35;;;4.57;;
29902;SDS011;30288;50.514;9.678;2023-12-28T06:21:44;8.73;;;4.55;;
29902;SDS011;30288;50.514;9.678;2023-12-28T06:23:47;8.88;;;4.22;;
29902;SDS011;30288;50.514;9.678;2023-12-28T06:25:53;7.75;;;4.32;;
29902;SDS011;30288;50.514;9.678;2023-12-28T06:27:58;8.63;;;4.70;;
29902;SDS011;30288;50.514;9.678;2023-12-28T06:30:04;7.88;;;4.18;;
29902;SDS011;30288;50.514;9.678;2023-12-28T06:32:12;8.07;;;4.55;;
29902;SDS011;30288;50.514;9.678;2023-12-28T06:34:17;8.35;;;4.18;;
29902;SDS011;30288;50.514;9.678;2023-12-28T06:36:25;9.00;;;4.60;;
29902;SDS011;30288;50.514;9.678;2023-12-28T06:38:31;11.27;;;4.95;;
29902;SDS011;30288;50.514;9.678;2023-12-28T06:40:36;10.13;;;4.40;;
29902;SDS011;30288;50.514;9.678;2023-12-28T06:42:41;7.88;;;4.32;;
29902;SDS011;30288;50.514;9.678;2023-12-28T06:44:47;9.18;;;4.63;;
29902;SDS011;30288;50.514;9.678;2023-12-28T06:46:52;9.60;;;4.88;;
29902;SDS011;30288;50.514;9.678;2023-12-28T06:48:57;10.43;;;5.00;;
29902;SDS011;30288;50.514;9.678;2023-12-28T06:51:03;11.45;;;5.07;;
29902;SDS011;30288;50.514;9.678;2023-12-28T06:53:12;10.32;;;4.93;;
29902;SDS011;30288;50.514;9.678;2023-12-28T06:55:17;8.07;;;4.55;;
29902;SDS011;30288;50.514;9.678;2023-12-28T06:57:22;9.65;;;4.68;;
29902;SDS011;30288;50.514;9.678;2023-12-28T06:59:27;9.55;;;5.15;;
29902;SDS011;30288;50.514;9.678;2023-12-28T07:01:32;7.72;;;4.47;;
29902;SDS011;30288;50.514;9.678;2023-12-28T07:03:38;11.68;;;4.57;;
29902;SDS011;30288;50.514;9.678;2023-12-28T07:05:43;14.15;;;4.95;;
29902;SDS011;30288;50.514;9.678;2023-12-28T07:07:48;8.65;;;4.82;;
29902;SDS011;30288;50.514;9.678;2023-12-28T07:09:53;14.93;;;5.88;;
29902;SDS011;30288;50.514;9.678;2023-12-28T07:11:59;9.23;;;4.43;;
29902;SDS011;30288;50.514;9.678;2023-12-28T07:14:04;11.15;;;5.82;;
29902;SDS011;30288;50.514;9.678;2023-12-28T07:16:09;10.70;;;5.13;;
29902;SDS011;30288;50.514;9.678;2023-12-28T07:18:14;9.50;;;5.07;;
29902;SDS011;30288;50.514;9.678;2023-12-28T07:20:20;8.32;;;4.50;;
29902;SDS011;30288;50.514;9.678;2023-12-28T07:22:25;8.20;;;4.40;;
29902;SDS011;30288;50.514;9.678;2023-12-28T07:24:30;8.88;;;4.07;;
29902;SDS011;30288;50.514;9.678;2023-12-28T07:26:38;8.65;;;4.75;;
29902;SDS011;30288;50.514;9.678;2023-12-28T07:28:44;8.52;;;4.53;;
29902;SDS011;30288;50.514;9.678;2023-12-28T07:30:50;10.02;;;4.63;;
29902;SDS011;30288;50.514;9.678;2023-12-28T07:32:56;8.13;;;4.40;;
29902;SDS011;30288;50.514;9.678;2023-12-28T07:35:02;9.85;;;4.43;;
29902;SDS011;30288;50.514;9.678;2023-12-28T07:37:08;13.13;;;5.78;;
29902;SDS011;30288;50.514;9.678;2023-12-28T07:39:13;7.55;;;4.22;;
29902;SDS011;30288;50.514;9.678;2023-12-28T07:41:19;10.10;;;4.25;;
29902;SDS011;30288;50.514;9.678;2023-12-28T07:45:31;9.07;;;4.07;;
29902;SDS011;30288;50.514;9.678;2023-12-28T07:47:33;9.68;;;3.90;;
29902;SDS011;30288;50.514;9.678;2023-12-28T07:49:41;10.05;;;4.78;;
29902;SDS011;30288;50.514;9.678;2023-12-28T07:51:46;7.97;;;4.07;;
29902;SDS011;30288;50.514;9.678;2023-12-28T07:53:49;9.40;;;4.15;;
29902;SDS011;30288;50.514;9.678;2023-12-28T07:55:54;9.90;;;3.88;;
29902;SDS011;30288;50.514;9.678;2023-12-28T07:57:59;9.50;;;4.05;;
29902;SDS011;30288;50.514;9.678;2023-12-28T08:00:08;9.77;;;3.40;;
29902;SDS011;30288;50.514;9.678;2023-12-28T08:02:14;7.18;;;3.30;;
29902;SDS011;30288;50.514;9.678;2023-12-28T08:04:22;6.88;;;3.42;;
29902;SDS011;30288;50.514;9.678;2023-12-28T08:06:28;9.70;;;3.30;;
29902;SDS011;30288;50.514;9.678;2023-12-28T08:08:34;7.22;;;3.35;;
29902;SDS011;30288;50.514;9.678;2023-12-28T08:10:38;7.90;;;3.67;;
29902;SDS011;30288;50.514;9.678;2023-12-28T08:12:46;6.20;;;2.83;;
29902;SDS011;30288;50.514;9.678;2023-12-28T08:14:51;6.75;;;3.03;;
29902;SDS011;30288;50.514;9.678;2023-12-28T08:16:57;7.25;;;3.05;;
29902;SDS011;30288;50.514;9.678;2023-12-28T08:19:02;6.20;;;2.67;;
29902;SDS011;30288;50.514;9.678;2023-12-28T08:21:07;9.10;;;3.15;;
29902;SDS011;30288;50.514;9.678;2023-12-28T08:23:13;6.65;;;3.15;;
29902;SDS011;30288;50.514;9.678;2023-12-28T08:25:19;5.75;;;2.80;;
29902;SDS011;30288;50.514;9.678;2023-12-28T08:27:25;6.72;;;2.85;;
29902;SDS011;30288;50.514;9.678;2023-12-28T08:29:30;6.55;;;3.13;;
29902;SDS011;30288;50.514;9.678;2023-12-28T08:31:38;5.63;;;2.80;;
29902;SDS011;30288;50.514;9.678;2023-12-28T08:33:50;6.82;;;2.90;;
29902;SDS011;30288;50.514;9.678;2023-12-28T08:35:56;6.75;;;3.00;;
29902;SDS011;30288;50.514;9.678;2023-12-28T08:38:02;6.15;;;2.92;;
29902;SDS011;30288;50.514;9.678;2023-12-28T08:40:09;7.43;;;2.42;;
29902;SDS011;30288;50.514;9.678;2023-12-28T08:42:15;6.50;;;3.00;;
29902;SDS011;30288;50.514;9.678;2023-12-28T08:44:21;5.13;;;2.58;;
29902;SDS011;30288;50.514;9.678;2023-12-28T08:46:26;6.13;;;2.83;;
29902;SDS011;30288;50.514;9.678;2023-12-28T08:48:32;5.18;;;2.38;;
29902;SDS011;30288;50.514;9.678;2023-12-28T08:50:37;5.32;;;2.42;;
29902;SDS011;30288;50.514;9.678;2023-12-28T08:52:42;5.65;;;2.70;;
29902;SDS011;30288;50.514;9.678;2023-12-28T08:54:48;5.88;;;2.63;;
29902;SDS011;30288;50.514;9.678;2023-12-28T08:56:53;5.72;;;2.50;;
29902;SDS011;30288;50.514;9.678;2023-12-28T08:59:01;5.55;;;3.05;;
29902;SDS011;30288;50.514;9.678;2023-12-28T09:01:05;5.95;;;2.65;;
29902;SDS011;30288;50.514;9.678;2023-12-28T09:03:10;6.00;;;2.50;;
29902;SDS011;30288;50.514;9.678;2023-12-28T09:05:15;5.93;;;2.55;;
29902;SDS011;30288;50.514;9.678;2023-12-28T09:07:21;4.30;;;2.38;;
29902;SDS011;30288;50.514;9.678;2023-12-28T09:09:26;6.43;;;2.70;;
29902;SDS011;30288;50.514;9.678;2023-12-28T09:11:31;5.75;;;2.42;;
29902;SDS011;30288;50.514;9.678;2023-12-28T09:13:37;5.70;;;2.70;;
29902;SDS011;30288;50.514;9.678;2023-12-28T09:15:43;6.78;;;2.35;;
29902;SDS011;30288;50.514;9.678;2023-12-28T09:17:48;7.40;;;3.03;;
29902;SDS011;30288;50.514;9.678;2023-12-28T09:19:54;8.73;;;2.70;;
29902;SDS011;30288;50.514;9.678;2023-12-28T09:21:59;5.38;;;2.10;;
29902;SDS011;30288;50.514;9.678;2023-12-28T09:24:07;7.43;;;2.28;;
29902;SDS011;30288;50.514;9.678;2023-12-28T09:26:12;3.97;;;2.00;;
29902;SDS011;30288;50.514;9.678;2023-12-28T09:28:17;5.28;;;2.35;;
29902;SDS011;30288;50.514;9.678;2023-12-28T09:30:23;4.85;;;2.55;;
29902;SDS011;30288;50.514;9.678;2023-12-28T09:32:29;9.27;;;2.40;;
29902;SDS011;30288;50.514;9.678;2023-12-28T09:36:37;9.27;;;2.47;;
29902;SDS011;30288;50.514;9.678;2023-12-28T09:38:40;7.72;;;2.80;;
29902;SDS011;30288;50.514;9.678;2023-12-28T09:40:48;8.02;;;2.50;;
29902;SDS011;30288;50.514;9.678;2023-12-28T09:43:00;8.02;;;2.67;;
29902;SDS011;30288;50.514;9.678;2023-12-28T09:45:17;5.15;;;2.10;;
29902;SDS011;30288;50.514;9.678;2023-12-28T09:47:23;6.32;;;2.30;;
29902;SDS011;30288;50.514;9.678;2023-12-28T09:49:29;8.40;;;2.40;;
29902;SDS011;30288;50.514;9.678;2023-12-28T09:51:35;6.25;;;2.53;;
29902;SDS011;30288;50.514;9.678;2023-12-28T09:53:41;4.13;;;2.00;;
29902;SDS011;30288;50.514;9.678;2023-12-28T09:55:51;5.32;;;2.20;;
29902;SDS011;30288;50.514;9.678;2023-12-28T09:57:57;6.22;;;2.35;;
29902;SDS011;30288;50.514;9.678;2023-12-28T10:00:05;6.93;;;2.30;;
29902;SDS011;30288;50.514;9.678;2023-12-28T10:02:12;9.75;;;2.05;;
29902;SDS011;30288;50.514;9.678;2023-12-28T10:04:19;4.30;;;2.05;;
29902;SDS011;30288;50.514;9.678;2023-12-28T10:06:25;5.45;;;2.58;;
29902;SDS011;30288;50.514;9.678;2023-12-28T10:08:30;6.65;;;2.60;;
29902;SDS011;30288;50.514;9.678;2023-12-28T10:10:37;4.53;;;2.28;;
29902;SDS011;30288;50.514;9.678;2023-12-28T10:12:42;5.82;;;2.13;;
29902;SDS011;30288;50.514;9.678;2023-12-28T10:14:50;4.95;;;2.05;;
29902;SDS011;30288;50.514;9.678;2023-12-28T10:16:55;6.50;;;2.50;;
29902;SDS011;30288;50.514;9.678;2023-12-28T10:19:01;3.67;;;1.90;;
29902;SDS011;30288;50.514;9.678;2023-12-28T10:21:06;8.55;;;2.17;;
29902;SDS011;30288;50.514;9.678;2023-12-28T10:23:11;6.40;;;2.00;;
29902;SDS011;30288;50.514;9.678;2023-12-28T10:25:16;6.32;;;1.90;;
29902;SDS011;30288;50.514;9.678;2023-12-28T10:27:22;6.15;;;2.30;;
29902;SDS011;30288;50.514;9.678;2023-12-28T10:29:31;4.50;;;1.85;;
29902;SDS011;30288;50.514;9.678;2023-12-28T10:31:36;7.03;;;2.65;;
29902;SDS011;30288;50.514;9.678;2023-12-28T10:33:42;4.40;;;1.60;;
29902;SDS011;30288;50.514;9.678;2023-12-28T10:35:49;4.20;;;1.73;;
29902;SDS011;30288;50.514;9.678;2023-12-28T10:37:56;5.75;;;1.98;;
29902;SDS011;30288;50.514;9.678;2023-12-28T10:40:05;6.07;;;1.63;;
29902;SDS011;30288;50.514;9.678;2023-12-28T10:42:17;6.65;;;2.33;;
29902;SDS011;30288;50.514;9.678;2023-12-28T10:44:36;4.60;;;1.92;;
29902;SDS011;30288;50.514;9.678;2023-12-28T10:46:45;7.47;;;2.60;;
29902;SDS011;30288;50.514;9.678;2023-12-28T10:48:57;4.75;;;2.30;;
29902;SDS011;30288;50.514;9.678;2023-12-28T10:51:09;6.97;;;2.28;;
29902;SDS011;30288;50.514;9.678;2023-12-28T10:53:21;3.97;;;1.85;;
29902;SDS011;30288;50.514;9.678;2023-12-28T10:55:40;7.05;;;2.05;;
29902;SDS011;30288;50.514;9.678;2023-12-28T10:57:54;8.77;;;2.40;;
29902;SDS011;30288;50.514;9.678;2023-12-28T11:00:13;6.35;;;2.05;;
29902;SDS011;30288;50.514;9.678;2023-12-28T11:02:22;4.78;;;2.25;;
29902;SDS011;30288;50.514;9.678;2023-12-28T11:04:37;6.68;;;2.10;;
29902;SDS011;30288;50.514;9.678;2023-12-28T11:06:47;5.93;;;2.17;;
29902;SDS011;30288;50.514;9.678;2023-12-28T11:08:53;5.57;;;1.80;;
29902;SDS011;30288;50.514;9.678;2023-12-28T11:11:01;3.53;;;1.65;;
29902;SDS011;30288;50.514;9.678;2023-12-28T11:13:08;6.60;;;1.95;;
29902;SDS011;30288;50.514;9.678;2023-12-28T11:15:14;4.93;;;2.08;;
29902;SDS011;30288;50.514;9.678;2023-12-28T11:17:22;3.88;;;1.80;;
29902;SDS011;30288;50.514;9.678;2023-12-28T11:19:26;4.88;;;2.13;;
29902;SDS011;30288;50.514;9.678;2023-12-28T11:21:33;5.55;;;2.05;;
29902;SDS011;30288;50.514;9.678;2023-12-28T11:23:39;5.60;;;1.90;;
29902;SDS011;30288;50.514;9.678;2023-12-28T11:25:45;6.32;;;2.13;;
29902;SDS011;30288;50.514;9.678;2023-12-28T11:27:50;7.95;;;2.90;;
29902;SDS011;30288;50.514;9.678;2023-12-28T11:29:56;5.68;;;2.13;;
29902;SDS011;30288;50.514;9.678;2023-12-28T11:32:04;4.72;;;2.10;;
29902;SDS011;30288;50.514;9.678;2023-12-28T11:34:09;4.10;;;2.10;;
29902;SDS011;30288;50.514;9.678;2023-12-28T11:36:21;4.35;;;1.73;;
29902;SDS011;30288;50.514;9.678;2023-12-28T11:38:31;3.90;;;2.03;;
29902;SDS011;30288;50.514;9.678;2023-12-28T11:40:39;7.18;;;2.58;;
29902;SDS011;30288;50.514;9.678;2023-12-28T11:42:51;6.82;;;2.03;;
29902;SDS011;30288;50.514;9.678;2023-12-28T11:44:58;5.18;;;2.10;;
29902;SDS011;30288;50.514;9.678;2023-12-28T11:47:14;6.68;;;2.28;;
29902;SDS011;30288;50.514;9.678;2023-12-28T11:49:24;5.35;;;2.20;;
29902;SDS011;30288;50.514;9.678;2023-12-28T11:51:29;5.72;;;1.90;;
29902;SDS011;30288;50.514;9.678;2023-12-28T11:53:34;6.95;;;2.00;;
29902;SDS011;30288;50.514;9.678;2023-12-28T11:55:41;9.13;;;2.20;;
29902;SDS011;30288;50.514;9.678;2023-12-28T11:57:44;7.55;;;1.80;;
29902;SDS011;30288;50.514;9.678;2023-12-28T11:59:52;7.25;;;2.45;;
29902;SDS011;30288;50.514;9.678;2023-12-28T12:02:00;5.00;;;1.60;;
29902;SDS011;30288;50.514;9.678;2023-12-28T12:04:11;4.03;;;1.75;;
29902;SDS011;30288;50.514;9.678;2023-12-28T12:06:18;5.18;;;2.25;;
29902;SDS011;30288;50.514;9.678;2023-12-28T12:08:21;5.25;;;1.70;;
29902;SDS011;30288;50.514;9.678;2023-12-28T12:10:27;5.47;;;1.80;;
29902;SDS011;30288;50.514;9.678;2023-12-28T12:12:33;7.30;;;1.98;;
29902;SDS011;30288;50.514;9.678;2023-12-28T12:14:39;3.00;;;1.50;;
29902;SDS011;30288;50.514;9.678;2023-12-28T12:16:42;5.45;;;1.95;;
29902;SDS011;30288;50.514;9.678;2023-12-28T12:18:47;6.18;;;1.80;;
29902;SDS011;30288;50.514;9.678;2023-12-28T12:20:56;4.50;;;1.60;;
29902;SDS011;30288;50.514;9.678;2023-12-28T12:23:02;6.80;;;1.80;;
29902;SDS011;30288;50.514;9.678;2023-12-28T12:25:07;4.57;;;1.92;;
29902;SDS011;30288;50.514;9.678;2023-12-28T12:27:10;6.22;;;1.70;;
29902;SDS011;30288;50.514;9.678;2023-12-28T12:29:15;5.53;;;1.90;;
29902;SDS011;30288;50.514;9.678;2023-12-28T12:31:22;7.53;;;1.98;;
29902;SDS011;30288;50.514;9.678;2023-12-28T12:33:29;8.23;;;2.17;;
29902;SDS011;30288;50.514;9.678;2023-12-28T12:35:35;3.78;;;1.80;;
29902;SDS011;30288;50.514;9.678;2023-12-28T12:37:43;6.18;;;1.95;;
29902;SDS011;30288;50.514;9.678;2023-12-28T12:39:50;5.50;;;2.00;;
29902;SDS011;30288;50.514;9.678;2023-12-28T12:41:57;4.15;;;1.73;;
29902;SDS011;30288;50.514;9.678;2023-12-28T12:44:00;5.63;;;2.08;;
29902;SDS011;30288;50.514;9.678;2023-12-28T12:46:06;6.75;;;1.70;;
29902;SDS011;30288;50.514;9.678;2023-12-28T12:50:14;5.70;;;1.75;;
29902;SDS011;30288;50.514;9.678;2023-12-28T12:52:17;7.05;;;1.80;;
29902;SDS011;30288;50.514;9.678;2023-12-28T12:54:27;6.30;;;2.58;;
29902;SDS011;30288;50.514;9.678;2023-12-28T12:56:33;5.03;;;1.50;;